ENBN/BNN METAR and TAF weather

Enter ICAO airport designator
Station Type Date Time Source
ENBN METAR 2019/06/17 06:20 UTC NOAA

ENBN 170620Z 22005KT 9999 FEW007 SCT012 BKN020 11/10 Q1012


Station Type Date Time Source
ENBN Decoded METAR 2019/06/17 06:20 UTC NOAA

Bronnoysund / Bronnoy, Norway (ENBN) 65-28N 012-13E 9M
Jun 17, 2019 - 02:20 AM EDT / 2019.06.17 0620 UTC
Wind: from the SW (220 degrees) at 6 MPH (5 KT):0
Visibility: greater than 7 mile(s):0
Sky conditions: mostly cloudy
Temperature: 51 F (11 C)
Dew Point: 50 F (10 C)
Relative Humidity: 93%
Pressure (altimeter): 29.88 in. Hg (1012 hPa)
ob: ENBN 170620Z 22005KT 9999 FEW007 SCT012 BKN020 11/10 Q1012
cycle: 6

Station Type Date Time Source
ENBN TAF 2011/03/27 18:12 UTC NOAA

TAF TAF ENBN 261700Z 2618/2718 CNL

Example: see airport list